Flight Track Log - Related Links

Times and Time Zones

All times are in EDT time to prevent confusion due to time zone crossing. See the DAL6201 flight status page for this flight to view local times or setup timezone preferences in your user account.


Time Position Orientation Groundspeed Altitude Reporting Facility
EDT Latitude Longitude Course Direction KTS MPH feet Rate Location/Type
Wed 07:18:52 PM 40.4892 -80.2083 88° East 160 184 1,800  Level FAA TRACON SMA TRACON (SMA)
Wed 07:19:12 PM 40.4897 -80.1867 88° East 156 180 2,700 2,100 Climbing FAA TRACON SMA TRACON (SMA)
Wed 07:19:32 PM 40.4922 -80.1678 80° East 178 205 3,200 1,700 Climbing FAA TRACON SMA TRACON (SMA)
Wed 07:20:12 PM 40.5008 -80.1192 77° East 217 250 4,400 1,729 Climbing FAA TRACON SMA TRACON (SMA)
Wed 07:20:31 PM 40.5031 -80.0906 84° East 243 280 4,900 1,950 Climbing FAA TRACON SMA TRACON (SMA)
Wed 07:20:52 PM 40.5078 -80.0536 80° East 272 313 5,700 2,195 Climbing FAA TRACON SMA TRACON (SMA)
Wed 07:21:12 PM 40.5125 -80.0231 79° East 279 321 6,400 2,049 Climbing FAA TRACON SMA TRACON (SMA)
Wed 07:21:33 PM 40.5172 -79.9914 79° East 291 335 7,100 2,700 Climbing FAA TRACON SMA TRACON (SMA)
Wed 07:21:52 PM 40.5225 -79.9500 80° East 298 343 8,200 3,077 Climbing FAA TRACON SMA TRACON (SMA)
Wed 07:22:12 PM 40.5267 -79.9169 81° East 299 344 9,100 2,700 Climbing FAA TRACON SMA TRACON (SMA)
Wed 07:22:32 PM 40.5311 -79.8836 80° East 300 345 10,000 2,250 Climbing FAA TRACON SMA TRACON (SMA)
Wed 07:22:52 PM 40.5358 -79.8411 82° East 305 351 10,600 1,650 Climbing FAA TRACON SMA TRACON (SMA)
Wed 07:23:12 PM 40.5408 -79.8039 80° East 336 387 11,100 1,800 Climbing FAA TRACON SMA TRACON (SMA)
Wed 07:23:32 PM 40.5464 -79.7656 79° East 346 398 11,800 1,950 Climbing FAA TRACON SMA TRACON (SMA)
Wed 07:23:52 PM 40.5522 -79.7167 81° East 354 407 12,400 1,950 Climbing FAA TRACON SMA TRACON (SMA)
Wed 07:24:12 PM 40.5575 -79.6767 80° East 359 413 13,100 1,950 Climbing FAA TRACON SMA TRACON (SMA)
Wed 07:24:32 PM 40.5625 -79.6361 81° East 364 419 13,700 2,100 Climbing FAA TRACON SMA TRACON (SMA)
Wed 07:24:52 PM 40.5689 -79.5842 81° East 372 428 14,500 2,100 Climbing FAA TRACON SMA TRACON (SMA)
Wed 07:25:12 PM 40.5742 -79.5419 81° East 378 435 15,100 1,800 Climbing FAA TRACON SMA TRACON (SMA)
Wed 07:25:32 PM 40.5797 -79.4994 80° East 381 438 15,700 2,000 Climbing FAA TRACON SMA TRACON (SMA)
Wed 07:25:51 PM 40.5867 -79.4456 80° East 389 448 16,400 1,800 Climbing FAA TRACON SMA TRACON (SMA)
Wed 07:26:12 PM 40.5922 -79.4014 81° East 399 459 16,900 1,610 Climbing FAA TRACON SMA TRACON (SMA)
Wed 07:26:32 PM 40.5981 -79.3567 80° East 400 460 17,500 1,650 Climbing FAA TRACON SMA TRACON (SMA)
Wed 07:26:52 PM 40.6053 -79.3003 80° East 405 466 18,000 1,650 Climbing FAA TRACON SMA TRACON (SMA)
Wed 07:27:12 PM 40.6114 -79.2550 80° East 407 468 18,600 1,692 Climbing FAA TRACON SMA TRACON (SMA)
Wed 07:27:31 PM 40.6172 -79.2094 80° East 409 471 19,100 1,800 Climbing FAA TRACON SMA TRACON (SMA)
Wed 07:27:52 PM 40.6242 -79.1514 81° East 414 476 19,800 1,610 Climbing FAA TRACON SMA TRACON (SMA)
Wed 07:28:12 PM 40.6358 -79.1094 70° East 417 480 20,200 1,050 Climbing FAA TRACON SMA TRACON (SMA)
Wed 07:28:32 PM 40.6325 -79.0811 99° East 421 484 20,500 1,412 Climbing FAA TRACON SMA TRACON (SMA)
Wed 07:29:03 PM 40.6542 -78.9767 75° East 412 474 21,400 1,600 Climbing Cleveland Center
Wed 07:30:02 PM 40.6708 -78.8311 81° East 427 491 22,900 1,462 Climbing Cleveland Center
Wed 07:31:02 PM 40.6911 -78.6689 81° East 438 504 24,300 1,263 Climbing Cleveland Center
Wed 07:32:34 PM 40.7339 -78.4044 78° East 432 497 26,100 1,137 Climbing New York Center
Wed 07:33:35 PM 40.7633 -78.2378 77° East 457 526 27,200 1,091 Climbing New York Center
Wed 07:34:35 PM 40.7897 -78.0844 77° East 475 547 28,300 900 Climbing New York Center
Wed 07:35:35 PM 40.8189 -77.9147 77° East 480 552 29,000 353 Climbing New York Center
Wed 07:36:34 PM 40.8481 -77.7394 78° East 485 558 29,000  Level New York Center
Wed 07:37:34 PM 40.8769 -77.5639 78° East 485 558 29,000  Level New York Center
Wed 07:38:36 PM 40.9058 -77.3856 78° East 485 558 29,000  Level New York Center
Wed 07:39:34 PM 40.9369 -77.1989 78° East 479 551 29,000  Level New York Center
Wed 07:40:34 PM 40.9403 -77.0206 89° East 479 551 29,000 -1,150 Level New York Center
Wed 07:41:34 PM 40.9350 -76.8414 92° East 479 551 26,700 -2,380 Descending New York Center
Wed 07:42:35 PM 40.9303 -76.6844 92° East 479 551 24,200 -2,521 Descending New York Center
Wed 07:43:33 PM 40.9258 -76.5247 92° East 468 539 21,700 -2,672 Descending New York Center
Wed 07:44:34 PM 40.9236 -76.3514 91° East 436 502 18,900 -1,835 Descending New York Center
Wed 07:45:34 PM 40.9097 -76.2022 97° East 408 470 18,000 -600 Descending New York Center
Wed 07:46:34 PM 40.8764 -76.0622 107° East 403 464 17,700 -1,289 Descending New York Center
Wed 07:47:35 PM 40.8431 -75.9197 107° East 408 470 15,400 -2,066 Descending New York Center
Wed 07:48:36 PM 40.8094 -75.7828 108° East 399 459 13,500 -1,200 Descending New York Center
Wed 07:49:35 PM 40.7753 -75.6514 109° East 388 447 13,000 -250 Descending New York Center
Wed 07:50:36 PM 40.7469 -75.5289 107° East 388 447 13,000  Level New York Center
Wed 07:51:36 PM 40.7114 -75.3731 107° East 394 453 13,000 -305 Level New York Center
Wed 07:52:34 PM 40.6836 -75.2344 105° East 394 453 12,400 -958 Descending New York Center
Wed 07:53:35 PM 40.6419 -75.1194 115° Southeast 389 448 11,100 -1,190 Descending New York Center
Wed 07:54:35 PM 40.5750 -75.0117 129° Southeast 384 442 10,000 -545 Descending New York Center
Wed 07:55:36 PM 40.5278 -74.8722 114° Southeast 372 428 10,000  Level New York Center
Wed 07:56:18 PM 40.5000 -74.8000 117° Southeast 321 369 10,000  Level New York TRACON
Wed 07:57:24 PM 40.4667 -74.6667 108° East 319 367 10,000 -400 Level New York TRACON
Wed 07:58:18 PM 40.4167 -74.6000 135° Southeast 306 352 9,200 -526 Descending New York TRACON
Wed 07:59:18 PM 40.3500 -74.5333 143° Southeast 303 349 9,000 -100 Descending New York TRACON
Wed 08:00:18 PM 40.3167 -74.4333 114° Southeast 312 359 9,000  Level New York TRACON
Wed 08:01:24 PM 40.3667 -74.3333 57° Northeast 294 338 9,000 -200 Level New York TRACON
Wed 08:02:18 PM 40.4167 -74.2667 45° Northeast 300 345 8,600 -789 Descending New York TRACON
Wed 08:03:18 PM 40.4667 -74.1833 52° Northeast 278 320 7,500 -1,200 Descending New York TRACON
Wed 08:04:18 PM 40.5333 -74.1333 30° Northeast 267 307 6,200 -1,300 Descending New York TRACON
Wed 08:05:18 PM 40.5833 -74.0833 37° Northeast 258 297 4,900 -1,100 Descending New York TRACON
Wed 08:06:18 PM 40.6500 -74.0500 21° North 261 300 4,000 -450 Descending New York TRACON
Wed 08:07:18 PM 40.7167 -74.0167 21° North 255 293 4,000 -400 Level New York TRACON
Wed 08:08:18 PM 40.7833 -73.9833 21° North 256 295 3,200 -526 Descending New York TRACON
Wed 08:09:12 PM 40.8333 -73.9500 27° Northeast 236 272 3,000 -313 Descending New York TRACON
Wed 08:10:13 PM 40.8667 -73.9000 49° Northeast 197 227 2,600 -714 Descending New York TRACON
Wed 08:11:18 PM 40.8500 -73.8333 108° East 187 215 1,500 -1,008 Descending New York TRACON
Wed 08:12:12 PM 40.8000 -73.8500 194° South 155 178 600 -1,000 Descending New York TRACON
Wed 08:14:00 PM 40.7667 -73.8667 201° Southwest  Level FlightAware Approximate

Login

Don't have an account? Register now (free) for customized features, flight alerts, and more!